createdAt,value
2022-12-08T00:02:09.372Z,65.26
2022-12-08T00:04:35.987Z,65.20
2022-12-08T00:07:03.993Z,64.86
2022-12-08T00:09:38.749Z,64.76
2022-12-08T00:12:07.730Z,64.54
2022-12-08T00:14:37.319Z,64.90
2022-12-08T00:17:04.657Z,65.26
2022-12-08T00:19:31.841Z,65.20
2022-12-08T00:21:58.691Z,65.15
2022-12-08T00:24:32.229Z,65.09
2022-12-08T00:26:58.744Z,65.23
2022-12-08T00:29:25.479Z,65.39
2022-12-08T00:31:52.295Z,64.95
2022-12-08T00:34:18.991Z,65.22
2022-12-08T00:36:46.280Z,65.66
2022-12-08T00:39:14.805Z,65.54
2022-12-08T00:41:43.077Z,65.49
2022-12-08T00:44:11.881Z,65.81
2022-12-08T00:46:38.552Z,65.52
2022-12-08T00:49:06.032Z,65.72
2022-12-08T00:51:32.906Z,65.97
2022-12-08T00:53:59.600Z,65.33
2022-12-08T00:56:26.765Z,66.55
2022-12-08T00:58:54.852Z,65.96
2022-12-08T01:01:21.734Z,65.85
2022-12-08T01:03:48.629Z,65.65
2022-12-08T01:06:15.386Z,65.96
2022-12-08T01:08:42.501Z,65.76
2022-12-08T01:11:11.866Z,65.19
2022-12-08T01:13:38.813Z,65.32
2022-12-08T01:16:07.245Z,65.00
2022-12-08T01:18:34.539Z,65.28
2022-12-08T01:21:02.835Z,65.34
2022-12-08T01:23:29.327Z,65.51
2022-12-08T01:25:55.776Z,65.19
2022-12-08T01:28:22.568Z,65.05
2022-12-08T01:30:49.043Z,65.27
2022-12-08T01:33:16.945Z,65.08
2022-12-08T01:35:43.425Z,64.96
2022-12-08T01:38:09.873Z,65.02
2022-12-08T01:40:36.616Z,64.54
2022-12-08T01:43:03.097Z,64.69
2022-12-08T01:45:31.401Z,64.79
2022-12-08T01:48:03.012Z,65.19
2022-12-08T01:50:32.438Z,65.09
2022-12-08T01:53:04.141Z,65.11
2022-12-08T01:55:35.566Z,65.29
2022-12-08T01:58:11.458Z,66.06
2022-12-08T02:00:37.991Z,65.40
2022-12-08T02:03:08.984Z,65.71
2022-12-08T02:05:39.546Z,65.86
2022-12-08T02:08:08.444Z,65.97
2022-12-08T02:10:37.599Z,66.07
2022-12-08T02:13:05.468Z,65.77
2022-12-08T02:15:39.442Z,66.11
2022-12-08T02:18:24.149Z,66.02
2022-12-08T02:21:01.388Z,65.83
2022-12-08T02:23:37.211Z,65.45
2022-12-08T02:26:30.871Z,66.09
2022-12-08T02:29:18.605Z,65.81
2022-12-08T02:32:01.968Z,65.45
2022-12-08T02:34:34.235Z,65.77
2022-12-08T02:37:07.895Z,65.50
2022-12-08T02:39:42.152Z,65.21
2022-12-08T02:42:17.507Z,65.13
2022-12-08T02:44:51.673Z,65.21
2022-12-08T02:47:20.252Z,64.72
2022-12-08T02:49:48.114Z,65.05
2022-12-08T02:52:40.692Z,65.14
2022-12-08T02:55:11.485Z,64.84
2022-12-08T02:57:53.426Z,64.60
2022-12-08T03:00:22.339Z,64.86
2022-12-08T03:03:03.910Z,64.53
2022-12-08T03:05:55.682Z,64.92
2022-12-08T03:08:28.878Z,65.12
2022-12-08T03:11:01.224Z,64.82
2022-12-08T03:13:34.602Z,64.46
2022-12-08T03:16:04.536Z,64.23
2022-12-08T03:18:34.050Z,64.65
2022-12-08T03:21:03.303Z,64.77
2022-12-08T03:23:31.118Z,65.06
2022-12-08T03:26:04.664Z,64.78
2022-12-08T03:28:31.698Z,65.10
2022-12-08T03:31:02.689Z,65.29
2022-12-08T03:33:33.143Z,66.02
2022-12-08T03:36:01.519Z,65.33
2022-12-08T03:38:37.671Z,65.36
2022-12-08T03:41:04.444Z,65.26
2022-12-08T03:43:30.946Z,65.18
2022-12-08T03:45:57.607Z,65.15
2022-12-08T03:48:24.128Z,65.03
2022-12-08T03:50:50.749Z,65.29
2022-12-08T03:53:17.227Z,64.95
2022-12-08T03:55:45.237Z,64.72
2022-12-08T03:58:11.679Z,64.97
2022-12-08T04:00:38.177Z,65.39
2022-12-08T04:03:04.782Z,65.39
2022-12-08T04:05:31.476Z,65.32
2022-12-08T04:07:58.178Z,65.57
2022-12-08T04:10:24.788Z,65.31
2022-12-08T04:12:52.855Z,65.14
2022-12-08T04:15:19.383Z,65.23
2022-12-08T04:17:46.072Z,65.22
2022-12-08T04:20:12.828Z,65.20
2022-12-08T04:22:39.436Z,65.15
2022-12-08T04:25:07.121Z,65.04
2022-12-08T04:27:33.610Z,65.03
2022-12-08T04:30:01.719Z,65.39
2022-12-08T04:32:28.515Z,64.80
2022-12-08T04:34:55.183Z,65.18
2022-12-08T04:37:21.644Z,65.03
2022-12-08T04:39:48.238Z,65.21
2022-12-08T04:42:14.801Z,64.94
2022-12-08T04:44:41.262Z,64.91
2022-12-08T04:47:09.250Z,65.15
2022-12-08T04:49:35.749Z,65.43
2022-12-08T04:52:02.314Z,65.67
2022-12-08T04:54:28.804Z,65.37
2022-12-08T04:56:55.355Z,65.54
2022-12-08T04:59:21.909Z,65.36
2022-12-08T05:01:48.508Z,66.19
2022-12-08T05:04:16.500Z,65.63
2022-12-08T05:06:42.962Z,65.57
2022-12-08T05:09:09.477Z,65.60
2022-12-08T05:11:35.921Z,65.68
2022-12-08T05:14:02.488Z,65.81
2022-12-08T05:16:29.012Z,66.49
2022-12-08T05:18:55.702Z,66.13
2022-12-08T05:21:23.617Z,66.61
2022-12-08T05:23:50.144Z,66.16
2022-12-08T05:26:16.594Z,66.60
2022-12-08T05:28:44.080Z,66.84
2022-12-08T05:31:11.618Z,66.58
2022-12-08T05:33:38.310Z,66.72
2022-12-08T05:36:05.114Z,66.42
2022-12-08T05:38:33.113Z,66.91
2022-12-08T05:40:59.555Z,67.00
2022-12-08T05:43:27.071Z,67.09
2022-12-08T05:45:53.645Z,66.66
2022-12-08T05:48:20.501Z,66.65
2022-12-08T05:50:47.375Z,66.96
2022-12-08T05:53:13.883Z,66.83
2022-12-08T05:55:42.086Z,66.60
2022-12-08T05:58:13.133Z,67.23
2022-12-08T06:00:39.928Z,67.72
2022-12-08T06:03:06.734Z,66.83
2022-12-08T06:05:33.929Z,66.55
2022-12-08T06:08:00.752Z,66.44
2022-12-08T06:10:27.693Z,66.55
2022-12-08T06:12:55.533Z,66.26
2022-12-08T06:15:22.153Z,67.22
2022-12-08T06:17:48.741Z,67.18
2022-12-08T06:20:15.358Z,67.28
2022-12-08T06:22:41.921Z,67.08
2022-12-08T06:25:10.262Z,67.81
2022-12-08T06:27:36.980Z,67.43
2022-12-08T06:30:06.678Z,66.75
2022-12-08T06:32:33.425Z,66.69
2022-12-08T06:35:03.090Z,67.00
2022-12-08T06:37:29.579Z,66.92
2022-12-08T06:39:56.189Z,66.91
2022-12-08T06:45:42.575Z,66.60
2022-12-08T06:48:09.103Z,66.88
2022-12-08T06:50:35.572Z,66.86
2022-12-08T06:53:05.361Z,66.64
2022-12-08T06:58:20.251Z,66.80
2022-12-08T07:00:48.315Z,67.05
2022-12-08T07:03:14.932Z,67.36
2022-12-08T07:05:41.526Z,67.17
2022-12-08T07:08:09.452Z,67.87
2022-12-08T07:10:36.432Z,67.08
2022-12-08T07:13:03.162Z,67.09
2022-12-08T07:15:32.835Z,66.82
2022-12-08T07:18:00.844Z,67.55
2022-12-08T07:20:27.796Z,67.21
2022-12-08T07:22:54.328Z,67.31
2022-12-08T07:25:21.142Z,67.90
2022-12-08T07:27:48.061Z,67.63
2022-12-08T07:30:14.721Z,68.08
2022-12-08T07:32:41.270Z,67.98
2022-12-08T07:35:09.954Z,67.56
2022-12-08T07:37:37.734Z,67.51
2022-12-08T07:40:05.965Z,67.73
2022-12-08T07:42:33.053Z,67.51
2022-12-08T07:44:59.559Z,67.40
2022-12-08T07:47:26.762Z,67.03
2022-12-08T07:49:53.621Z,66.59
2022-12-08T07:52:21.479Z,66.64
2022-12-08T07:54:48.005Z,66.88
2022-12-08T07:57:15.304Z,66.78
2022-12-08T07:59:41.844Z,66.81
2022-12-08T08:02:24.407Z,67.31
2022-12-08T08:04:52.500Z,67.05
2022-12-08T08:07:19.068Z,67.17
2022-12-08T08:09:47.053Z,66.95
2022-12-08T08:15:01.118Z,66.48
2022-12-08T08:17:28.604Z,66.04
2022-12-08T08:19:55.233Z,66.56
2022-12-08T08:22:21.738Z,66.49
2022-12-08T08:24:49.665Z,65.74
2022-12-08T08:27:16.211Z,66.21
2022-12-08T08:29:42.676Z,66.08
2022-12-08T08:32:09.200Z,65.89
2022-12-08T08:34:35.905Z,65.63
2022-12-08T08:37:02.580Z,65.65
2022-12-08T08:39:29.375Z,65.72
2022-12-08T08:41:57.685Z,65.49
2022-12-08T08:44:24.201Z,65.97
2022-12-08T08:46:50.701Z,65.93
2022-12-08T08:49:17.272Z,65.56
2022-12-08T08:51:43.851Z,65.96
2022-12-08T08:54:10.573Z,66.48
2022-12-08T08:56:37.177Z,66.11
2022-12-08T08:59:05.144Z,65.58
2022-12-08T09:01:31.791Z,65.87
2022-12-08T09:03:58.490Z,65.63
2022-12-08T09:06:25.699Z,65.41
2022-12-08T09:08:52.323Z,65.77
2022-12-08T09:11:18.900Z,65.26
2022-12-08T09:13:47.911Z,65.15
2022-12-08T09:16:16.410Z,65.43
2022-12-08T09:18:42.976Z,65.64
2022-12-08T09:21:11.958Z,65.17
2022-12-08T09:23:39.208Z,65.58
2022-12-08T09:26:05.800Z,65.68
2022-12-08T09:28:32.412Z,65.68
2022-12-08T09:30:59.012Z,65.67
2022-12-08T09:33:26.915Z,65.75
2022-12-08T09:35:53.478Z,65.96
2022-12-08T09:38:20.013Z,65.68
2022-12-08T09:40:50.842Z,65.54
2022-12-08T09:43:40.395Z,65.64
2022-12-08T09:46:16.448Z,65.53
2022-12-08T09:48:49.789Z,65.36
2022-12-08T09:51:16.361Z,65.14
2022-12-08T09:53:47.261Z,65.19
2022-12-08T09:56:16.976Z,65.22
2022-12-08T09:58:49.697Z,65.30
2022-12-08T10:01:16.808Z,65.20
2022-12-08T10:03:44.740Z,65.35
2022-12-08T10:06:24.672Z,65.33
2022-12-08T10:08:59.337Z,65.35
2022-12-08T10:11:32.132Z,65.87
2022-12-08T10:14:08.782Z,66.10
2022-12-08T10:16:40.725Z,65.62
2022-12-08T10:19:16.003Z,65.62
2022-12-08T10:21:42.556Z,65.33
2022-12-08T10:24:15.798Z,64.97
2022-12-08T10:26:43.059Z,65.01
2022-12-08T10:29:13.059Z,64.85
2022-12-08T10:31:40.273Z,64.60
2022-12-08T10:34:15.909Z,65.12
2022-12-08T10:36:52.010Z,64.91
2022-12-08T10:39:33.638Z,64.98
2022-12-08T10:42:02.083Z,64.63
2022-12-08T10:44:29.298Z,64.88
2022-12-08T10:46:55.958Z,64.82
2022-12-08T10:49:29.080Z,65.66
2022-12-08T10:51:55.590Z,64.94
2022-12-08T10:54:27.752Z,64.56
2022-12-08T10:56:55.603Z,64.26
2022-12-08T10:59:22.654Z,63.89
2022-12-08T11:01:50.961Z,64.21
2022-12-08T11:04:19.879Z,63.72
2022-12-08T11:06:49.057Z,63.43
2022-12-08T11:09:25.719Z,63.78
2022-12-08T11:11:54.103Z,63.24
2022-12-08T11:14:23.958Z,63.94
2022-12-08T11:16:51.674Z,63.47
2022-12-08T11:19:19.406Z,63.51
2022-12-08T11:21:46.295Z,63.20
2022-12-08T11:24:23.158Z,62.68
2022-12-08T11:26:53.723Z,62.36
2022-12-08T11:29:20.855Z,62.14
2022-12-08T11:31:51.908Z,61.48
2022-12-08T11:34:23.957Z,61.45
2022-12-08T11:36:52.660Z,61.64
2022-12-08T11:39:22.415Z,62.18
2022-12-08T11:41:50.624Z,61.84
2022-12-08T11:44:29.221Z,61.32
2022-12-08T11:46:58.349Z,61.21
2022-12-08T11:49:33.294Z,61.06
2022-12-08T11:52:05.104Z,61.66
2022-12-08T11:54:35.933Z,60.52
2022-12-08T11:57:05.602Z,61.18
2022-12-08T11:59:34.576Z,61.45
2022-12-08T12:02:04.367Z,61.40
2022-12-08T12:04:37.777Z,61.66
2022-12-08T12:07:28.871Z,61.80
2022-12-08T12:10:11.794Z,61.06
2022-12-08T12:12:55.807Z,62.10
2022-12-08T12:15:43.596Z,62.37
2022-12-08T12:18:17.190Z,62.64
2022-12-08T12:20:52.410Z,62.38
2022-12-08T12:23:24.278Z,62.76
2022-12-08T12:25:59.155Z,62.60
2022-12-08T12:28:29.085Z,62.55
2022-12-08T12:31:07.072Z,62.04
2022-12-08T12:33:34.729Z,62.01
2022-12-08T12:36:05.330Z,62.11
2022-12-08T12:38:34.964Z,61.60
2022-12-08T12:41:07.342Z,61.88
2022-12-08T12:43:36.002Z,61.71
2022-12-08T12:46:53.166Z,62.24
2022-12-08T12:50:02.625Z,61.60
2022-12-08T12:52:48.391Z,61.69
2022-12-08T12:55:49.357Z,61.10
2022-12-08T12:58:36.515Z,60.92
2022-12-08T13:01:40.286Z,60.53
2022-12-08T13:04:09.078Z,60.27
2022-12-08T13:06:39.283Z,60.37
2022-12-08T13:09:06.526Z,61.18
2022-12-08T13:11:48.010Z,61.19
2022-12-08T13:14:30.907Z,60.84
2022-12-08T13:17:00.813Z,60.75
2022-12-08T13:19:40.216Z,60.63
2022-12-08T13:22:43.807Z,60.14
2022-12-08T13:25:59.372Z,60.43
2022-12-08T13:28:28.344Z,60.60
2022-12-08T13:30:58.217Z,60.38
2022-12-08T13:33:29.205Z,60.57
2022-12-08T13:36:14.495Z,60.57
2022-12-08T13:38:44.190Z,60.34
2022-12-08T13:41:17.249Z,60.75
2022-12-08T13:44:10.296Z,61.09
2022-12-08T13:56:51.612Z,60.61
2022-12-08T13:58:20.017Z,60.63
2022-12-08T14:01:09.006Z,60.30
2022-12-08T14:04:04.608Z,60.29
2022-12-08T14:06:36.913Z,60.22
2022-12-08T14:09:11.205Z,60.74
2022-12-08T14:11:40.216Z,60.28
2022-12-08T14:14:09.605Z,60.60
2022-12-08T14:16:39.001Z,60.14
2022-12-08T14:19:17.266Z,61.02
2022-12-08T14:21:47.253Z,61.15
2022-12-08T14:24:13.807Z,60.81
2022-12-08T14:26:40.703Z,61.03
2022-12-08T14:29:08.242Z,60.68
2022-12-08T14:31:35.035Z,61.33
2022-12-08T14:34:01.529Z,61.45
2022-12-08T14:36:29.485Z,61.39
2022-12-08T14:38:56.749Z,61.31
2022-12-08T14:41:38.340Z,61.73
2022-12-08T14:44:23.175Z,61.94
2022-12-08T14:47:05.688Z,61.91
2022-12-08T14:49:34.063Z,61.97
2022-12-08T14:52:03.111Z,62.25
2022-12-08T14:54:31.072Z,62.21
2022-12-08T14:57:00.399Z,62.27
2022-12-08T14:59:29.241Z,62.13
2022-12-08T15:02:12.202Z,62.50
2022-12-08T15:04:41.262Z,62.37
2022-12-08T15:07:14.519Z,62.00
2022-12-08T15:09:42.665Z,62.40
2022-12-08T15:12:26.795Z,62.22
2022-12-08T15:14:56.150Z,62.64
2022-12-08T15:17:31.527Z,62.46
2022-12-08T15:19:59.210Z,62.28
2022-12-08T15:22:29.396Z,62.20
2022-12-08T15:24:56.697Z,61.83
2022-12-08T15:27:24.910Z,61.71
2022-12-08T15:29:51.863Z,61.45
2022-12-08T15:32:20.642Z,61.67
2022-12-08T15:34:47.356Z,61.11
2022-12-08T15:37:20.366Z,61.62
2022-12-08T15:39:48.411Z,62.12
2022-12-08T15:42:15.089Z,61.73
2022-12-08T15:44:41.939Z,61.88
2022-12-08T15:47:15.981Z,61.94
2022-12-08T15:49:43.783Z,62.40
2022-12-08T15:52:13.930Z,61.66
2022-12-08T15:54:41.051Z,61.74
2022-12-08T15:57:20.411Z,61.59
2022-12-08T15:59:52.855Z,61.83
2022-12-08T16:02:22.599Z,61.72
2022-12-08T16:07:38.731Z,61.59
2022-12-08T16:10:07.693Z,61.40
2022-12-08T16:18:16.299Z,62.29
2022-12-08T16:23:42.938Z,62.28
2022-12-08T16:28:59.805Z,62.69
2022-12-08T16:31:28.739Z,62.55
2022-12-08T16:33:55.254Z,62.58
2022-12-08T16:36:30.630Z,62.73
2022-12-08T16:39:19.147Z,63.02
2022-12-08T16:45:44.989Z,62.55
2022-12-08T16:48:15.035Z,62.77
2022-12-08T16:54:20.401Z,62.48
2022-12-08T17:00:12.272Z,62.72
2022-12-08T17:02:43.166Z,63.52
2022-12-08T17:05:16.330Z,62.89
2022-12-08T17:07:57.408Z,62.37
2022-12-08T17:10:35.771Z,62.07
2022-12-08T17:13:41.868Z,61.94
2022-12-08T17:16:37.877Z,62.12
2022-12-08T17:49:23.839Z,62.25
2022-12-08T18:24:19.827Z,62.30
2022-12-08T18:33:51.200Z,62.31
2022-12-08T18:39:41.837Z,62.17
2022-12-08T18:43:04.657Z,62.41
2022-12-08T18:52:53.109Z,62.61
2022-12-08T18:59:04.755Z,61.89
2022-12-08T19:04:54.436Z,61.68
2022-12-08T19:33:41.329Z,62.31
2022-12-08T19:37:00.864Z,61.97
2022-12-08T19:39:28.552Z,61.71
2022-12-08T19:41:55.414Z,61.35
2022-12-08T19:44:24.554Z,61.60
2022-12-08T19:46:52.631Z,61.72
2022-12-08T19:49:20.604Z,61.85
2022-12-08T19:51:47.108Z,61.57
2022-12-08T19:54:13.639Z,61.50
2022-12-08T19:56:40.244Z,61.46
2022-12-08T19:59:13.686Z,61.32
2022-12-08T20:01:40.355Z,61.55
2022-12-08T20:04:08.592Z,61.88
2022-12-08T20:06:36.559Z,61.72
2022-12-08T20:12:30.446Z,61.62
2022-12-08T20:14:58.089Z,61.56
2022-12-08T20:17:26.823Z,61.28
2022-12-08T20:19:54.520Z,61.55
2022-12-08T20:22:23.086Z,61.38
2022-12-08T20:24:57.238Z,61.74
2022-12-08T20:27:27.751Z,61.81
2022-12-08T20:29:54.557Z,61.63
2022-12-08T20:32:21.077Z,61.53
2022-12-08T20:34:47.663Z,62.01
2022-12-08T20:37:20.487Z,62.04
2022-12-08T20:39:49.266Z,62.10
2022-12-08T20:42:17.634Z,61.77
2022-12-08T20:44:46.785Z,61.87
2022-12-08T20:47:13.962Z,61.76
2022-12-08T20:49:40.654Z,61.64
2022-12-08T20:52:08.048Z,61.86
2022-12-08T20:54:35.172Z,61.66
2022-12-08T20:57:03.280Z,62.06
2022-12-08T20:59:30.471Z,62.04
2022-12-08T21:01:57.520Z,62.34
2022-12-08T21:04:24.196Z,62.26
2022-12-08T21:06:50.993Z,61.95
2022-12-08T21:09:17.690Z,61.86
2022-12-08T21:11:45.062Z,61.86
2022-12-08T21:14:13.175Z,61.88
2022-12-08T21:16:40.109Z,61.80
2022-12-08T21:19:06.722Z,61.50
2022-12-08T21:21:33.526Z,61.77
2022-12-08T21:24:00.241Z,62.06
2022-12-08T21:26:26.996Z,62.41
2022-12-08T21:28:54.346Z,62.37
2022-12-08T21:31:22.439Z,62.05
2022-12-08T21:33:49.327Z,61.98
2022-12-08T21:36:18.053Z,62.03
2022-12-08T21:38:46.198Z,62.05
2022-12-08T21:44:46.439Z,62.15
2022-12-08T21:47:14.697Z,61.85
2022-12-08T21:49:42.872Z,62.08
2022-12-08T21:52:09.772Z,61.61
2022-12-08T21:54:39.315Z,61.60
2022-12-08T21:57:09.334Z,61.81
2022-12-08T21:59:36.580Z,61.66
2022-12-08T22:02:03.701Z,62.21
2022-12-08T22:04:32.030Z,62.11
2022-12-08T22:07:06.248Z,62.09
2022-12-08T22:09:33.018Z,62.10
2022-12-08T22:11:59.994Z,61.55
2022-12-08T22:14:26.699Z,61.84
2022-12-08T22:16:53.505Z,61.90
2022-12-08T22:19:20.314Z,62.01
2022-12-08T22:21:48.526Z,61.66
2022-12-08T22:24:14.988Z,61.75
2022-12-08T22:26:41.735Z,61.54
2022-12-08T22:29:11.084Z,61.34
2022-12-08T22:31:37.847Z,61.85
2022-12-08T22:34:04.691Z,61.63
2022-12-08T22:36:35.249Z,61.69
2022-12-08T22:39:04.913Z,61.84
2022-12-08T22:41:40.794Z,62.21
2022-12-08T22:44:08.791Z,62.36
2022-12-08T22:46:35.822Z,62.40
2022-12-08T22:49:03.181Z,62.32
2022-12-08T22:51:30.626Z,62.13
2022-12-08T22:53:57.780Z,62.49
2022-12-08T22:56:26.466Z,62.42
2022-12-08T22:58:54.749Z,62.79
2022-12-08T23:01:24.106Z,62.61
2022-12-08T23:03:51.029Z,62.78
2022-12-08T23:06:19.117Z,62.63
2022-12-08T23:08:46.526Z,62.63
2022-12-08T23:11:20.615Z,62.45
2022-12-08T23:13:53.306Z,62.94
2022-12-08T23:16:21.046Z,63.30
2022-12-08T23:18:48.555Z,63.07
2022-12-08T23:21:18.114Z,62.90
2022-12-08T23:23:45.701Z,63.21
2022-12-08T23:26:17.145Z,63.00
2022-12-08T23:28:44.309Z,62.90
2022-12-08T23:31:14.016Z,62.87
2022-12-08T23:33:41.007Z,62.98
2022-12-08T23:36:12.305Z,63.18
2022-12-08T23:38:41.774Z,63.09
2022-12-08T23:41:11.807Z,63.11
2022-12-08T23:43:44.870Z,63.27
2022-12-08T23:46:15.369Z,62.92
2022-12-08T23:48:43.775Z,62.97
2022-12-08T23:51:11.644Z,62.92
2022-12-08T23:53:39.038Z,62.81
2022-12-08T23:56:08.313Z,62.81
2022-12-08T23:58:38.050Z,63.11
